createdAt,value
2023-04-27T00:05:22.320Z,8.08361204013378
2023-04-27T00:11:43.114Z,7.551839464882943
2023-04-27T00:18:04.711Z,7.545150501672241
2023-04-27T00:24:24.259Z,7.197324414715719
2023-04-27T00:34:59.902Z,8.143812709030101
2023-04-27T00:43:23.275Z,7.622073578595318
2023-04-27T00:49:42.598Z,7.682274247491639
2023-04-27T00:56:02.742Z,6.7157190635451505
2023-04-27T01:02:21.516Z,7.929765886287625
2023-04-27T01:08:41.066Z,7.822742474916388
2023-04-27T01:15:01.300Z,7.588628762541806
2023-04-27T01:23:57.423Z,8.02675585284281
2023-04-27T01:30:16.848Z,7.678929765886288
2023-04-27T01:39:28.828Z,8.173913043478262
2023-04-27T01:45:49.562Z,8.190635451505017
2023-04-27T01:52:09.192Z,8.474916387959865
2023-04-27T02:03:52.626Z,8.377926421404682
2023-04-27T02:18:53.478Z,8.66220735785953
2023-04-27T02:26:02.943Z,8.612040133779264
2023-04-27T02:32:20.741Z,8.535117056856187
2023-04-27T02:48:25.446Z,8.434782608695652
2023-04-27T02:54:43.263Z,8.903010033444817
2023-04-27T03:01:01.434Z,9.023411371237458
2023-04-27T03:15:12.101Z,8.461538461538462
2023-04-27T03:21:30.024Z,8.658862876254181
2023-04-27T03:27:47.911Z,9.692307692307692
2023-04-27T03:39:22.758Z,10.043478260869565
2023-04-27T03:45:41.183Z,9.518394648829432
2023-04-27T03:51:59.345Z,9.82943143812709
2023-04-27T03:58:17.553Z,10.421404682274247
2023-04-27T04:04:36.906Z,10.073578595317725
2023-04-27T04:10:54.742Z,10.384615384615385
2023-04-27T04:17:14.362Z,10.364548494983278
2023-04-27T04:23:34.407Z,11.334448160535118
2023-04-27T04:29:56.238Z,12.431438127090301
2023-04-27T04:39:57.763Z,10.608695652173912
2023-04-27T04:46:19.726Z,10.538461538461538
2023-04-27T04:53:32.981Z,10.755852842809364
2023-04-27T04:59:55.981Z,11.240802675585284
2023-04-27T05:07:32.722Z,11.130434782608695
2023-04-27T05:13:55.348Z,10.96989966555184
2023-04-27T05:25:09.419Z,10.775919732441471
2023-04-27T05:41:38.377Z,11.17056856187291
2023-04-27T05:47:59.760Z,10.782608695652174
2023-04-27T05:54:23.518Z,11.076923076923077
2023-04-27T06:10:47.271Z,11.347826086956522
2023-04-27T06:17:09.662Z,11.719063545150501
2023-04-27T06:23:32.106Z,11.668896321070234
2023-04-27T06:29:53.832Z,10.528428093645484
2023-04-27T06:41:22.300Z,8.157190635451505
2023-04-27T06:47:43.144Z,7.762541806020067
2023-04-27T06:54:03.939Z,7.464882943143813
2023-04-27T07:04:36.301Z,6.668896321070235
2023-04-27T07:10:58.374Z,6.414715719063545
2023-04-27T07:17:19.138Z,5.40133779264214
2023-04-27T07:23:40.349Z,5.926421404682274
2023-04-27T07:35:21.266Z,5.8561872909699
2023-04-27T07:41:42.545Z,5.207357859531773
2023-04-27T08:00:28.597Z,6.7157190635451505
2023-04-27T08:12:23.719Z,9.187290969899665
2023-04-27T08:18:45.085Z,5.1638795986622075
2023-04-27T08:25:06.553Z,4.210702341137123
2023-04-27T08:31:28.125Z,4.498327759197324
2023-04-27T08:37:48.348Z,4.966555183946488
2023-04-27T08:48:29.171Z,4.769230769230769
2023-04-27T08:58:30.952Z,4.618729096989966
2023-04-27T09:08:14.110Z,4.9799331103678925
2023-04-27T09:18:19.241Z,4.735785953177258
2023-04-27T09:24:38.525Z,4.68561872909699
2023-04-27T09:30:58.070Z,4.936454849498328
2023-04-27T09:38:09.965Z,4.933110367892977
2023-04-27T09:44:29.320Z,4.722408026755853
2023-04-27T09:50:48.357Z,4.367892976588629
2023-04-27T09:57:07.882Z,4.050167224080267
2023-04-27T10:03:27.139Z,4.745819397993311
2023-04-27T10:09:46.448Z,4.424749163879599
2023-04-27T10:17:36.777Z,4.923076923076923
2023-04-27T10:27:28.360Z,5.103678929765886
2023-04-27T10:38:50.544Z,5.311036789297659
2023-04-27T10:49:54.933Z,5.468227424749164
2023-04-27T10:58:59.211Z,6.869565217391305
2023-04-27T11:05:20.288Z,6.277591973244147
2023-04-27T11:11:41.073Z,6.4280936454849495
2023-04-27T11:20:11.548Z,7.822742474916388
2023-04-27T11:26:35.202Z,7.083612040133779
2023-04-27T11:32:55.578Z,6.531772575250836
2023-04-27T11:39:18.676Z,6.852842809364549
2023-04-27T11:45:38.990Z,6.053511705685619
2023-04-27T11:51:58.601Z,6.117056856187291
2023-04-27T11:58:18.319Z,6.39799331103679
2023-04-27T12:04:41.754Z,6.729096989966555
2023-04-27T12:11:04.144Z,6.625418060200669
2023-04-27T12:20:53.837Z,10.615384615384615
2023-04-27T12:27:13.926Z,10.585284280936454
2023-04-27T12:33:33.187Z,10.411371237458194
2023-04-27T12:39:53.199Z,10.936454849498327
2023-04-27T12:46:13.123Z,8.933110367892976
2023-04-27T12:52:32.578Z,8.264214046822742
2023-04-27T12:58:52.238Z,10.050167224080267
2023-04-27T13:05:12.609Z,8.347826086956522
2023-04-27T13:11:34.852Z,9.020066889632107
2023-04-27T13:17:57.657Z,10.615384615384615
2023-04-27T13:24:21.630Z,12.274247491638796
2023-04-27T13:30:44.736Z,11.903010033444817
2023-04-27T13:37:06.055Z,11.525083612040135
2023-04-27T13:44:31.376Z,13.762541806020067
2023-04-27T13:50:56.565Z,17.71571906354515
2023-04-27T13:57:16.464Z,20.076923076923077
2023-04-27T14:03:36.873Z,23.127090301003346
2023-04-27T14:09:59.562Z,23.608695652173914
2023-04-27T14:16:20.437Z,11.160535117056856
2023-04-27T14:34:08.065Z,11.441471571906355
2023-04-27T14:48:57.570Z,13.066889632107024
2023-04-27T15:00:09.310Z,15.090301003344482
2023-04-27T15:06:29.762Z,12.765886287625419
2023-04-27T15:12:51.920Z,13.431438127090301
2023-04-27T15:19:13.175Z,13.765886287625419
2023-04-27T15:33:01.350Z,12.926421404682275
2023-04-27T15:39:22.318Z,13.899665551839465
2023-04-27T15:45:42.674Z,12.595317725752508
2023-04-27T15:55:15.650Z,13.361204013377927
2023-04-27T16:07:45.871Z,11.702341137123746
2023-04-27T16:14:11.306Z,12.424749163879598
2023-04-27T16:20:36.609Z,13.080267558528428
2023-04-27T16:26:59.513Z,11.715719063545151
2023-04-27T16:33:21.856Z,13.19732441471572
2023-04-27T16:39:44.667Z,13.053511705685619
2023-04-27T16:50:55.919Z,16.25752508361204
2023-04-27T16:57:16.329Z,20.00334448160535
2023-04-27T17:03:36.729Z,17.702341137123746
2023-04-27T17:10:48.668Z,15.752508361204013
2023-04-27T17:24:17.762Z,14.284280936454849
2023-04-27T17:30:39.482Z,14.076923076923077
2023-04-27T17:37:03.149Z,16.421404682274247
2023-04-27T17:43:25.018Z,16.103678929765888
2023-04-27T17:52:33.285Z,17.505016722408026
2023-04-27T17:58:55.694Z,16.82274247491639
2023-04-27T18:05:19.709Z,15.939799331103679
2023-04-27T18:11:42.894Z,14.096989966555183
2023-04-27T18:21:09.130Z,15.454849498327759
2023-04-27T18:27:30.152Z,15.240802675585284
2023-04-27T18:33:52.096Z,15.013377926421406
2023-04-27T18:44:51.146Z,13.849498327759198
2023-04-27T18:51:09.715Z,13.80267558528428
2023-04-27T18:57:28.423Z,13.678929765886288
2023-04-27T19:07:47.244Z,14.688963210702342
2023-04-27T19:14:10.389Z,13.665551839464882
2023-04-27T19:20:31.881Z,13.40133779264214
2023-04-27T19:31:18.029Z,15.381270903010034
2023-04-27T19:43:49.120Z,14.59866220735786
2023-04-27T19:50:12.625Z,14.852842809364548
2023-04-27T20:01:14.515Z,13.812709030100335
2023-04-27T20:09:51.998Z,12.535117056856187
2023-04-27T20:16:15.803Z,13.434782608695652
2023-04-27T20:22:37.641Z,12.237458193979933
2023-04-27T20:35:07.721Z,12.923076923076923
2023-04-27T20:41:31.963Z,12.618729096989966
2023-04-27T20:47:55.518Z,13.391304347826088
2023-04-27T20:54:19.022Z,12.73913043478261
2023-04-27T21:00:39.148Z,13.919732441471572
2023-04-27T21:06:58.718Z,13.899665551839465
2023-04-27T21:18:41.553Z,16.11371237458194
2023-04-27T21:25:02.656Z,15.48494983277592
2023-04-27T21:31:21.792Z,17.090301003344482
2023-04-27T21:37:42.819Z,17.17725752508361
2023-04-27T21:44:03.680Z,17.668896321070235
2023-04-27T21:56:28.334Z,18.381270903010034
2023-04-27T22:02:47.843Z,18.418060200668897
2023-04-27T22:09:08.302Z,19.819397993311036
2023-04-27T22:15:28.208Z,18.71571906354515
2023-04-27T22:24:27.204Z,20.006688963210703
2023-04-27T22:30:46.742Z,19.953177257525084
2023-04-27T22:41:23.963Z,20.548494983277592
2023-04-27T22:47:43.519Z,21.070234113712374
2023-04-27T22:54:03.074Z,20.923076923076923
2023-04-27T23:00:23.190Z,21.498327759197323
2023-04-27T23:06:42.974Z,21.96655518394649
2023-04-27T23:13:01.912Z,20.337792642140467
2023-04-27T23:22:59.119Z,22.498327759197323
2023-04-27T23:29:19.109Z,21.896321070234112
2023-04-27T23:39:57.946Z,23.39799331103679
2023-04-27T23:48:58.905Z,23.254180602006688
2023-04-27T23:55:18.858Z,23.648829431438127
